createdAt,value
2019-05-25T00:01:00.631Z,98500.33
2019-05-25T00:03:30.382Z,98489.21
2019-05-25T00:05:59.977Z,98490.38
2019-05-25T00:08:29.526Z,98498.45
2019-05-25T00:10:59.136Z,98494.74
2019-05-25T00:13:28.732Z,98495.26
2019-05-25T00:15:58.335Z,98500.49
2019-05-25T00:18:27.948Z,98491.77
2019-05-25T00:20:57.565Z,98497.66
2019-05-25T00:23:27.173Z,98502.64
2019-05-25T00:25:56.755Z,98509.13
2019-05-25T00:28:26.358Z,98512.19
2019-05-25T00:30:55.940Z,98518.30
2019-05-25T00:33:25.492Z,98505.84
2019-05-25T00:35:55.153Z,98518.46
2019-05-25T00:38:24.726Z,98518.52
2019-05-25T00:40:54.336Z,98518.27
2019-05-25T00:43:23.872Z,98509.78
2019-05-25T00:45:53.465Z,98518.08
2019-05-25T00:48:23.085Z,98520.03
2019-05-25T00:50:52.646Z,98511.58
2019-05-25T00:53:22.338Z,98510.48
2019-05-25T00:55:51.938Z,98503.27
2019-05-25T00:58:21.487Z,98512.28
2019-05-25T01:00:51.107Z,98502.45
2019-05-25T01:03:20.672Z,98507.05
2019-05-25T01:05:50.319Z,98509.20
2019-05-25T01:08:19.943Z,98508.52
2019-05-25T01:10:49.495Z,98508.86
2019-05-25T01:13:19.051Z,98511.41
2019-05-25T01:15:48.645Z,98505.30
2019-05-25T01:18:18.262Z,98518.64
2019-05-25T01:20:47.880Z,98511.66
2019-05-25T01:23:17.429Z,98514.80
2019-05-25T01:25:46.997Z,98512.16
2019-05-25T01:28:16.567Z,98519.12
2019-05-25T01:30:46.170Z,98525.74
2019-05-25T01:33:15.829Z,98530.48
2019-05-25T01:35:45.439Z,98529.70
2019-05-25T01:38:14.995Z,98530.84
2019-05-25T01:40:44.569Z,98534.30
2019-05-25T01:43:14.148Z,98532.88
2019-05-25T01:45:43.775Z,98537.54
2019-05-25T01:48:13.346Z,98529.94
2019-05-25T01:50:42.916Z,98535.36
2019-05-25T01:53:12.486Z,98538.27
2019-05-25T01:55:42.036Z,98538.77
2019-05-25T01:58:11.636Z,98540.01
2019-05-25T02:00:41.203Z,98541.73
2019-05-25T02:03:10.858Z,98536.61
2019-05-25T02:05:40.451Z,98543.41
2019-05-25T02:08:10.019Z,98551.56
2019-05-25T02:10:39.647Z,98547.77
2019-05-25T02:13:09.213Z,98545.50
2019-05-25T02:15:38.814Z,98546.92
2019-05-25T02:18:08.382Z,98551.08
2019-05-25T02:20:37.953Z,98554.31
2019-05-25T02:23:07.669Z,98546.89
2019-05-25T02:25:37.262Z,98549.97
2019-05-25T02:28:06.823Z,98544.64
2019-05-25T02:30:36.683Z,98549.86
2019-05-25T02:33:06.262Z,98551.20
2019-05-25T02:35:35.842Z,98555.75
2019-05-25T02:38:05.542Z,98557.44
2019-05-25T02:40:35.221Z,98563.86
2019-05-25T02:43:04.811Z,98563.66
2019-05-25T02:45:34.420Z,98572.13
2019-05-25T02:48:04.109Z,98572.62
2019-05-25T02:50:33.709Z,98581.27
2019-05-25T02:53:03.291Z,98584.51
2019-05-25T02:55:35.006Z,98582.39
2019-05-25T02:58:04.222Z,98591.59
2019-05-25T03:00:34.560Z,98590.47
2019-05-25T03:03:05.423Z,98583.72
2019-05-25T03:05:34.992Z,98594.08
2019-05-25T03:08:04.786Z,98602.45
2019-05-25T03:10:34.630Z,98595.66
2019-05-25T03:13:04.699Z,98597.06
2019-05-25T03:15:34.345Z,98596.41
2019-05-25T03:18:04.013Z,98599.77
2019-05-25T03:20:33.571Z,98600.45
2019-05-25T03:23:03.150Z,98595.05
2019-05-25T03:25:48.290Z,98598.13
2019-05-25T03:28:04.047Z,98598.37
2019-05-25T03:30:35.289Z,98595.40
2019-05-25T03:33:05.007Z,98595.11
2019-05-25T03:35:34.719Z,98603.78
2019-05-25T03:38:04.312Z,98597.98
2019-05-25T03:40:33.889Z,98601.67
2019-05-25T03:43:03.469Z,98605.34
2019-05-25T03:45:33.108Z,98603.75
2019-05-25T03:48:02.799Z,98599.66
2019-05-25T03:50:32.371Z,98593.45
2019-05-25T03:53:01.980Z,98596.48
2019-05-25T03:55:31.578Z,98597.84
2019-05-25T03:58:01.207Z,98599.55
2019-05-25T04:00:37.656Z,98603.15
2019-05-25T04:03:08.065Z,98599.07
2019-05-25T04:05:37.641Z,98599.78
2019-05-25T04:08:07.241Z,98605.95
2019-05-25T04:10:38.918Z,98606.45
2019-05-25T04:13:08.102Z,98612.27
2019-05-25T04:15:37.720Z,98614.32
2019-05-25T04:18:07.314Z,98609.06
2019-05-25T04:20:37.160Z,98609.86
2019-05-25T04:23:06.744Z,98606.21
2019-05-25T04:25:36.328Z,98602.78
2019-05-25T04:28:06.022Z,98602.52
2019-05-25T04:30:35.576Z,98602.75
2019-05-25T04:33:05.235Z,98605.86
2019-05-25T04:35:34.838Z,98609.88
2019-05-25T04:38:04.556Z,98608.13
2019-05-25T04:40:34.149Z,98614.50
2019-05-25T04:43:03.745Z,98618.92
2019-05-25T04:45:33.394Z,98616.88
2019-05-25T04:48:03.037Z,98616.93
2019-05-25T04:50:32.614Z,98613.79
2019-05-25T04:53:02.177Z,98611.89
2019-05-25T04:55:31.780Z,98616.09
2019-05-25T04:58:01.360Z,98625.48
2019-05-25T05:00:30.975Z,98622.42
2019-05-25T05:03:00.574Z,98620.87
2019-05-25T05:05:30.156Z,98622.35
2019-05-25T05:07:59.745Z,98625.34
2019-05-25T05:10:29.310Z,98627.20
2019-05-25T05:12:58.938Z,98629.83
2019-05-25T05:15:28.514Z,98633.03
2019-05-25T05:17:58.077Z,98634.64
2019-05-25T05:20:27.684Z,98634.86
2019-05-25T05:22:57.275Z,98642.13
2019-05-25T05:25:26.905Z,98644.39
2019-05-25T05:27:56.481Z,98641.25
2019-05-25T05:30:35.889Z,98645.88
2019-05-25T05:33:05.754Z,98639.95
2019-05-25T05:35:38.844Z,98644.19
2019-05-25T05:38:07.651Z,98646.88
2019-05-25T05:40:38.407Z,98644.85
2019-05-25T05:43:11.562Z,98650.66
2019-05-25T05:45:43.185Z,98651.48
2019-05-25T05:48:14.323Z,98655.02
2019-05-25T05:50:45.250Z,98658.25
2019-05-25T05:53:14.943Z,98658.38
2019-05-25T05:55:44.660Z,98661.25
2019-05-25T05:58:14.222Z,98660.45
2019-05-25T06:00:43.790Z,98661.38
2019-05-25T06:03:13.363Z,98665.48
2019-05-25T06:05:42.942Z,98666.30
2019-05-25T06:08:12.636Z,98672.55
2019-05-25T06:10:42.243Z,98670.69
2019-05-25T06:13:11.910Z,98674.22
2019-05-25T06:15:41.582Z,98668.08
2019-05-25T06:18:11.199Z,98667.73
2019-05-25T06:20:40.756Z,98666.78
2019-05-25T06:23:12.446Z,98658.03
2019-05-25T06:25:41.725Z,98658.66
2019-05-25T06:28:11.392Z,98662.37
2019-05-25T06:30:40.999Z,98663.95
2019-05-25T06:33:10.573Z,98656.68
2019-05-25T06:35:40.177Z,98660.84
2019-05-25T06:38:09.764Z,98655.91
2019-05-25T06:40:39.533Z,98656.25
2019-05-25T06:43:09.116Z,98652.70
2019-05-25T06:45:38.704Z,98661.09
2019-05-25T06:48:08.321Z,98662.83
2019-05-25T06:50:37.919Z,98664.11
2019-05-25T06:53:07.582Z,98657.50
2019-05-25T06:55:37.177Z,98659.13
2019-05-25T06:58:06.861Z,98659.02
2019-05-25T07:00:36.483Z,98660.42
2019-05-25T07:03:06.075Z,98663.62
2019-05-25T07:05:35.650Z,98662.08
2019-05-25T07:08:05.310Z,98665.60
2019-05-25T07:10:34.951Z,98654.01
2019-05-25T07:13:04.747Z,98657.45
2019-05-25T07:15:34.332Z,98658.98
2019-05-25T07:18:03.901Z,98661.80
2019-05-25T07:20:33.474Z,98659.05
2019-05-25T07:23:03.070Z,98659.32
2019-05-25T07:25:32.747Z,98668.91
2019-05-25T07:28:02.330Z,98653.63
2019-05-25T07:30:31.886Z,98662.20
2019-05-25T07:33:01.492Z,98656.55
2019-05-25T07:35:31.080Z,98679.38
2019-05-25T07:38:00.743Z,98671.92
2019-05-25T07:40:30.420Z,98676.05
2019-05-25T07:42:59.994Z,98667.34
2019-05-25T07:45:29.588Z,98663.93
2019-05-25T07:47:59.190Z,98657.21
2019-05-25T07:50:28.840Z,98663.60
2019-05-25T07:52:58.404Z,98671.57
2019-05-25T07:55:27.982Z,98667.61
2019-05-25T07:57:57.579Z,98660.55
2019-05-25T08:00:27.407Z,98662.20
2019-05-25T08:02:57.050Z,98665.14
2019-05-25T08:05:26.615Z,98668.92
2019-05-25T08:07:56.191Z,98662.20
2019-05-25T08:10:25.796Z,98663.27
2019-05-25T08:12:55.382Z,98663.17
2019-05-25T08:15:24.997Z,98666.02
2019-05-25T08:17:54.586Z,98669.45
2019-05-25T08:20:24.157Z,98663.05
2019-05-25T08:22:54.946Z,98658.58
2019-05-25T08:25:24.496Z,98663.91
2019-05-25T08:27:54.129Z,98668.92
2019-05-25T08:30:23.885Z,98673.13
2019-05-25T08:32:53.483Z,98661.53
2019-05-25T08:35:23.086Z,98661.86
2019-05-25T08:37:52.728Z,98675.46
2019-05-25T08:40:22.513Z,98675.87
2019-05-25T08:42:52.108Z,98668.73
2019-05-25T08:45:25.686Z,98681.50
2019-05-25T08:47:56.787Z,98676.70
2019-05-25T08:50:37.199Z,98678.98
2019-05-25T08:52:56.076Z,98674.36
2019-05-25T08:55:25.704Z,98678.98
2019-05-25T08:57:55.408Z,98672.16
2019-05-25T09:00:25.144Z,98690.83
2019-05-25T09:02:54.750Z,98683.72
2019-05-25T09:05:24.298Z,98673.27
2019-05-25T09:07:53.968Z,98679.30
2019-05-25T09:10:23.562Z,98674.36
2019-05-25T09:12:53.213Z,98677.10
2019-05-25T09:15:22.899Z,98679.34
2019-05-25T09:17:52.463Z,98683.47
2019-05-25T09:20:22.183Z,98685.61
2019-05-25T09:22:51.730Z,98683.14
2019-05-25T09:25:21.392Z,98680.69
2019-05-25T09:27:50.971Z,98681.52
2019-05-25T09:30:20.584Z,98683.44
2019-05-25T09:32:50.222Z,98689.98
2019-05-25T09:35:19.860Z,98685.32
2019-05-25T09:37:49.462Z,98688.91
2019-05-25T09:40:19.803Z,98692.75
2019-05-25T09:42:49.473Z,98687.25
2019-05-25T09:45:19.217Z,98681.97
2019-05-25T09:47:48.797Z,98684.96
2019-05-25T09:50:18.419Z,98675.59
2019-05-25T09:52:48.032Z,98683.22
2019-05-25T09:55:17.706Z,98685.88
2019-05-25T09:57:47.351Z,98686.19
2019-05-25T10:00:17.472Z,98691.12
2019-05-25T10:02:47.139Z,98705.58
2019-05-25T10:05:16.851Z,98701.91
2019-05-25T10:07:46.421Z,98705.94
2019-05-25T10:10:16.334Z,98703.30
2019-05-25T10:12:45.915Z,98703.75
2019-05-25T10:15:15.560Z,98699.84
2019-05-25T10:17:45.209Z,98689.48
2019-05-25T10:20:15.285Z,98693.96
2019-05-25T10:22:44.869Z,98690.45
2019-05-25T10:25:15.284Z,98680.16
2019-05-25T10:27:44.858Z,98695.53
2019-05-25T10:30:14.701Z,98687.55
2019-05-25T10:32:44.286Z,98678.16
2019-05-25T10:35:14.220Z,98678.06
2019-05-25T10:37:43.814Z,98676.73
2019-05-25T10:40:13.623Z,98669.36
2019-05-25T10:42:43.203Z,98664.50
2019-05-25T10:45:14.901Z,98655.80
2019-05-25T10:47:44.501Z,98665.50
2019-05-25T10:50:14.443Z,98647.17
2019-05-25T10:52:44.001Z,98656.08
2019-05-25T10:55:14.272Z,98663.06
2019-05-25T10:57:43.891Z,98659.73
2019-05-25T11:00:15.496Z,98662.80
2019-05-25T11:02:45.145Z,98664.52
2019-05-25T11:05:15.655Z,98657.64
2019-05-25T11:07:45.322Z,98654.63
2019-05-25T11:10:15.348Z,98660.37
2019-05-25T11:12:44.979Z,98653.73
2019-05-25T11:15:15.020Z,98655.12
2019-05-25T11:17:44.582Z,98655.14
2019-05-25T11:20:14.466Z,98661.17
2019-05-25T11:22:44.089Z,98652.10
2019-05-25T11:25:14.096Z,98650.19
2019-05-25T11:27:43.751Z,98645.72
2019-05-25T11:30:14.651Z,98643.72
2019-05-25T11:32:44.255Z,98638.00
2019-05-25T11:35:14.147Z,98625.56
2019-05-25T11:37:43.739Z,98630.13
2019-05-25T11:40:14.077Z,98635.09
2019-05-25T11:42:43.649Z,98635.09
2019-05-25T11:45:14.550Z,98631.34
2019-05-25T11:47:44.140Z,98631.34
2019-05-25T11:50:14.722Z,98632.06
2019-05-25T11:52:44.370Z,98627.41
2019-05-25T11:55:14.597Z,98632.33
2019-05-25T11:57:44.214Z,98621.44
2019-05-25T12:00:24.421Z,98622.55
2019-05-25T12:02:46.280Z,98618.90
2019-05-25T12:05:16.086Z,98622.64
2019-05-25T12:07:45.763Z,98627.55
2019-05-25T12:10:16.908Z,98628.10
2019-05-25T12:12:46.501Z,98635.25
2019-05-25T12:15:16.572Z,98615.13
2019-05-25T12:17:46.184Z,98615.13
2019-05-25T12:20:17.738Z,98616.52
2019-05-25T12:22:47.334Z,98628.78
2019-05-25T12:25:17.811Z,98617.12
2019-05-25T12:27:49.350Z,98633.23
2019-05-25T12:30:20.371Z,98630.31
2019-05-25T12:32:50.115Z,98630.31
2019-05-25T12:35:19.900Z,98620.65
2019-05-25T12:37:49.507Z,98630.00
2019-05-25T12:40:20.129Z,98627.69
2019-05-25T12:42:49.725Z,98635.07
2019-05-25T12:45:19.572Z,98635.07
2019-05-25T12:47:49.152Z,98633.82
2019-05-25T12:50:18.970Z,98633.82
2019-05-25T12:52:48.630Z,98635.50
2019-05-25T12:55:18.260Z,98645.71
2019-05-25T12:57:47.813Z,98635.28
2019-05-25T13:00:17.714Z,98635.44
2019-05-25T13:02:47.330Z,98637.42
2019-05-25T13:05:32.668Z,98625.14
2019-05-25T13:07:49.318Z,98645.34
2019-05-25T13:10:19.135Z,98645.34
2019-05-25T13:12:48.707Z,98635.86
2019-05-25T13:15:18.366Z,98639.48
2019-05-25T13:17:48.174Z,98642.94
2019-05-25T13:20:18.098Z,98640.44
2019-05-25T13:22:47.744Z,98635.17
2019-05-25T13:25:17.521Z,98630.13
2019-05-25T13:27:47.085Z,98631.16
2019-05-25T13:30:18.226Z,98633.45
2019-05-25T13:32:47.848Z,98645.56
2019-05-25T13:35:18.004Z,98643.38
2019-05-25T13:37:47.708Z,98643.86
2019-05-25T13:40:18.310Z,98631.57
2019-05-25T13:42:47.974Z,98635.17
2019-05-25T13:45:18.336Z,98637.86
2019-05-25T13:47:47.945Z,98640.33
2019-05-25T13:50:18.545Z,98627.66
2019-05-25T13:52:48.164Z,98620.96
2019-05-25T13:55:17.984Z,98635.02
2019-05-25T13:57:47.591Z,98628.64
2019-05-25T14:00:17.500Z,98630.13
2019-05-25T14:02:47.161Z,98621.53
2019-05-25T14:05:16.932Z,98635.19
2019-05-25T14:07:46.584Z,98627.34
2019-05-25T14:10:16.244Z,98634.89
2019-05-25T14:12:45.829Z,98632.64
2019-05-25T14:15:15.543Z,98631.74
2019-05-25T14:17:45.124Z,98642.27
2019-05-25T14:20:15.044Z,98644.18
2019-05-25T14:22:44.685Z,98643.72
2019-05-25T14:25:14.407Z,98650.97
2019-05-25T14:27:44.000Z,98648.27
2019-05-25T14:30:14.375Z,98643.52
2019-05-25T14:32:44.014Z,98647.17
2019-05-25T14:35:14.055Z,98646.30
2019-05-25T14:37:43.645Z,98657.11
2019-05-25T14:40:13.335Z,98638.44
2019-05-25T14:42:42.952Z,98646.70
2019-05-25T14:45:14.398Z,98661.27
2019-05-25T14:47:43.997Z,98646.83
2019-05-25T14:50:14.183Z,98643.37
2019-05-25T14:52:43.879Z,98641.53
2019-05-25T14:55:13.581Z,98645.34
2019-05-25T14:57:43.174Z,98653.50
2019-05-25T15:00:13.394Z,98655.73
2019-05-25T15:02:43.038Z,98656.99
2019-05-25T15:05:12.909Z,98651.69
2019-05-25T15:07:42.500Z,98657.06
2019-05-25T15:10:12.488Z,98659.70
2019-05-25T15:12:42.136Z,98657.38
2019-05-25T15:15:12.505Z,98663.69
2019-05-25T15:17:43.102Z,98665.98
2019-05-25T15:20:14.802Z,98666.04
2019-05-25T15:22:46.830Z,98666.97
2019-05-25T15:25:17.339Z,98666.97
2019-05-25T15:27:47.022Z,98668.31
2019-05-25T15:30:16.822Z,98663.93
2019-05-25T15:32:46.637Z,98675.99
2019-05-25T15:35:20.031Z,98675.99
2019-05-25T15:37:47.893Z,98669.42
2019-05-25T15:40:17.780Z,98677.69
2019-05-25T15:42:47.520Z,98676.88
2019-05-25T15:45:17.511Z,98674.40
2019-05-25T15:47:47.145Z,98668.59
2019-05-25T15:50:17.710Z,98665.63
2019-05-25T15:52:47.344Z,98677.92
2019-05-25T15:55:17.357Z,98679.30
2019-05-25T15:57:46.984Z,98677.34
2019-05-25T16:00:18.737Z,98677.12
2019-05-25T16:02:48.293Z,98680.39
2019-05-25T16:05:18.207Z,98683.89
2019-05-25T16:07:52.395Z,98687.19
2019-05-25T16:10:21.971Z,98686.39
2019-05-25T16:12:51.564Z,98687.41
2019-05-25T16:15:28.372Z,98687.41
2019-05-25T16:17:58.013Z,98691.35
2019-05-25T16:20:27.659Z,98690.73
2019-05-25T16:22:57.249Z,98690.19
2019-05-25T16:25:27.138Z,98690.23
2019-05-25T16:27:56.746Z,98691.02
2019-05-25T16:30:26.530Z,98682.04
2019-05-25T16:33:13.960Z,98700.23
2019-05-25T16:35:27.557Z,98706.98
2019-05-25T16:37:57.419Z,98700.39
2019-05-25T16:40:27.027Z,98706.05
2019-05-25T16:42:56.606Z,98706.71
2019-05-25T16:45:26.442Z,98716.35
2019-05-25T16:47:56.027Z,98716.35
2019-05-25T16:50:25.641Z,98720.67
2019-05-25T16:52:55.250Z,98719.06
2019-05-25T16:55:24.817Z,98721.00
2019-05-25T16:57:54.591Z,98722.05
2019-05-25T17:00:30.399Z,98730.63
2019-05-25T17:03:00.833Z,98724.58
2019-05-25T17:05:30.526Z,98722.67
2019-05-25T17:08:00.087Z,98725.17
2019-05-25T17:10:29.713Z,98724.03
2019-05-25T17:12:59.273Z,98726.77
2019-05-25T17:15:28.896Z,98732.81
2019-05-25T17:17:58.594Z,98731.11
2019-05-25T17:20:28.255Z,98731.11
2019-05-25T17:22:57.902Z,98727.51
2019-05-25T17:25:27.519Z,98727.50
2019-05-25T17:27:57.105Z,98728.53
2019-05-25T17:30:42.328Z,98728.53
2019-05-25T17:33:12.233Z,98729.54
2019-05-25T17:35:41.888Z,98729.54
2019-05-25T17:38:11.459Z,98728.39
2019-05-25T17:40:41.165Z,98725.59
2019-05-25T17:43:10.899Z,98723.97
2019-05-25T17:45:40.528Z,98732.70
2019-05-25T17:48:10.155Z,98736.77
2019-05-25T17:50:39.899Z,98733.72
2019-05-25T17:53:09.477Z,98736.45
2019-05-25T17:55:39.091Z,98736.72
2019-05-25T17:58:08.736Z,98738.07
2019-05-25T18:00:43.796Z,98737.15
2019-05-25T18:03:13.448Z,98738.58
2019-05-25T18:05:43.045Z,98744.53
2019-05-25T18:08:12.730Z,98740.77
2019-05-25T18:10:52.622Z,98743.91
2019-05-25T18:13:13.772Z,98752.62
2019-05-25T18:15:43.363Z,98749.70
2019-05-25T18:18:12.956Z,98761.13
2019-05-25T18:20:42.656Z,98758.45
2019-05-25T18:23:12.227Z,98759.74
2019-05-25T18:25:41.852Z,98762.89
2019-05-25T18:28:11.422Z,98765.38
2019-05-25T18:30:41.065Z,98771.58
2019-05-25T18:33:10.717Z,98775.58
2019-05-25T18:35:40.338Z,98777.44
2019-05-25T18:38:09.909Z,98780.05
2019-05-25T18:40:39.515Z,98778.86
2019-05-25T18:43:09.252Z,98790.92
2019-05-25T18:45:38.811Z,98799.51
2019-05-25T18:48:08.565Z,98803.50
2019-05-25T18:50:38.216Z,98807.36
2019-05-25T18:53:07.870Z,98810.41
2019-05-25T18:55:37.500Z,98812.37
2019-05-25T18:58:07.112Z,98816.28
2019-05-25T19:00:36.687Z,98821.55
2019-05-25T19:03:06.534Z,98823.41
2019-05-25T19:05:36.119Z,98825.67
2019-05-25T19:08:05.814Z,98826.94
2019-05-25T19:10:35.431Z,98833.92
2019-05-25T19:13:05.013Z,98831.39
2019-05-25T19:15:34.745Z,98838.09
2019-05-25T19:18:04.431Z,98845.82
2019-05-25T19:20:34.035Z,98848.17
2019-05-25T19:23:03.673Z,98845.60
2019-05-25T19:25:33.319Z,98863.20
2019-05-25T19:28:02.939Z,98854.45
2019-05-25T19:30:32.552Z,98858.83
2019-05-25T19:33:02.129Z,98862.38
2019-05-25T19:35:31.737Z,98865.06
2019-05-25T19:38:01.381Z,98863.33
2019-05-25T19:40:31.037Z,98864.88
2019-05-25T19:43:00.648Z,98871.20
2019-05-25T19:45:32.696Z,98867.89
2019-05-25T19:48:01.566Z,98862.27
2019-05-25T19:50:31.119Z,98865.22
2019-05-25T19:53:00.786Z,98863.85
2019-05-25T19:55:30.396Z,98865.46
2019-05-25T19:57:59.987Z,98862.12
2019-05-25T20:00:29.662Z,98858.59
2019-05-25T20:02:59.291Z,98864.95
2019-05-25T20:05:28.891Z,98858.72
2019-05-25T20:07:58.491Z,98865.06
2019-05-25T20:10:28.074Z,98866.95
2019-05-25T20:12:57.737Z,98871.73
2019-05-25T20:15:27.324Z,98874.73
2019-05-25T20:17:56.938Z,98876.33
2019-05-25T20:20:26.624Z,98878.24
2019-05-25T20:22:56.396Z,98876.52
2019-05-25T20:25:26.056Z,98883.14
2019-05-25T20:27:55.710Z,98884.75
2019-05-25T20:30:25.292Z,98891.06
2019-05-25T20:32:54.886Z,98889.33
2019-05-25T20:35:33.147Z,98891.24
2019-05-25T20:37:55.847Z,98893.98
2019-05-25T20:40:25.412Z,98891.62
2019-05-25T20:42:54.993Z,98890.87
2019-05-25T20:45:24.601Z,98886.88
2019-05-25T20:47:54.194Z,98888.44
2019-05-25T20:50:23.798Z,98887.83
2019-05-25T20:52:53.391Z,98893.16
2019-05-25T20:55:22.962Z,98890.08
2019-05-25T20:57:52.593Z,98900.77
2019-05-25T21:00:24.224Z,98898.00
2019-05-25T21:03:05.237Z,98899.48
2019-05-25T21:05:25.021Z,98903.62
2019-05-25T21:07:54.594Z,98907.17
2019-05-25T21:10:24.224Z,98914.74
2019-05-25T21:12:53.837Z,98911.64
2019-05-25T21:15:23.447Z,98913.95
2019-05-25T21:17:53.061Z,98917.05
2019-05-25T21:20:22.746Z,98918.41
2019-05-25T21:22:52.288Z,98914.45
2019-05-25T21:25:22.096Z,98926.95
2019-05-25T21:27:51.698Z,98921.89
2019-05-25T21:30:21.443Z,98926.67
2019-05-25T21:32:51.106Z,98931.25
2019-05-25T21:35:20.822Z,98921.70
2019-05-25T21:37:50.463Z,98925.80
2019-05-25T21:40:20.028Z,98919.80
2019-05-25T21:42:49.610Z,98919.91
2019-05-25T21:45:19.384Z,98921.48
2019-05-25T21:47:49.023Z,98923.16
2019-05-25T21:50:18.848Z,98923.82
2019-05-25T21:52:48.422Z,98923.16
2019-05-25T21:55:18.192Z,98922.61
2019-05-25T21:57:47.776Z,98920.91
2019-05-25T22:00:21.438Z,98917.55
2019-05-25T22:02:51.178Z,98916.27
2019-05-25T22:05:20.982Z,98923.05
2019-05-25T22:07:50.562Z,98922.11
2019-05-25T22:10:20.153Z,98916.77
2019-05-25T22:12:49.779Z,98914.31
2019-05-25T22:15:19.420Z,98920.81
2019-05-25T22:17:48.977Z,98924.60
2019-05-25T22:20:18.917Z,98916.45
2019-05-25T22:22:48.563Z,98909.95
2019-05-25T22:25:18.304Z,98910.37
2019-05-25T22:27:47.859Z,98919.13
2019-05-25T22:30:17.631Z,98912.63
2019-05-25T22:32:47.340Z,98912.67
2019-05-25T22:35:16.971Z,98908.69
2019-05-25T22:37:46.524Z,98916.02
2019-05-25T22:40:16.408Z,98915.36
2019-05-25T22:42:46.014Z,98918.75
2019-05-25T22:45:15.585Z,98911.73
2019-05-25T22:47:45.172Z,98916.83
2019-05-25T22:50:15.425Z,98918.05
2019-05-25T22:52:45.000Z,98917.06
2019-05-25T22:55:14.807Z,98924.28
2019-05-25T22:57:44.369Z,98921.44
2019-05-25T23:00:14.290Z,98931.84
2019-05-25T23:02:44.048Z,98929.16
2019-05-25T23:05:15.161Z,98925.08
2019-05-25T23:07:44.712Z,98926.63
2019-05-25T23:10:14.372Z,98928.50
2019-05-25T23:12:43.971Z,98931.42
2019-05-25T23:15:13.778Z,98929.69
2019-05-25T23:17:43.345Z,98927.64
2019-05-25T23:20:13.006Z,98924.64
2019-05-25T23:22:42.642Z,98929.78
2019-05-25T23:25:12.450Z,98926.90
2019-05-25T23:27:42.034Z,98933.68
2019-05-25T23:30:12.297Z,98932.83
2019-05-25T23:32:41.898Z,98933.77
2019-05-25T23:35:11.691Z,98926.13
2019-05-25T23:37:41.281Z,98929.25
2019-05-25T23:40:12.445Z,98931.27
2019-05-25T23:42:42.071Z,98934.63
2019-05-25T23:45:12.612Z,98926.74
2019-05-25T23:47:42.190Z,98929.75
2019-05-25T23:50:12.292Z,98933.72
2019-05-25T23:52:41.904Z,98930.06
2019-05-25T23:55:12.088Z,98933.31
2019-05-25T23:57:41.687Z,98929.13
